Time;durP1;ratioP1;P1;durP2;ratioP2;P2;SDS_P1;SDS_P2;PMS_P1;PMS_P2;Temp;Humidity;BMP_temperature;BMP_pressure;BME280_temperature;BME280_humidity;BME280_pressure;Samples;Min_cycle;Max_cycle;Signal;HPM_P1;HPM_P2
2022/12/04 00:01:18;;;;;;;17.60;11.67;;;5.40;91.80;;;5.87;59.42;98418.44;4968952;28;114038;-73
2022/12/04 00:03:45;;;;;;;25.20;13.30;;;5.40;91.80;;;5.85;59.40;98423.38;4951011;28;123970;-73
2022/12/04 00:06:17;;;;;;;27.47;13.30;;;5.40;91.80;;;5.82;58.81;98404.78;4967556;28;123837;-74
2022/12/04 00:08:46;;;;;;;17.77;10.97;;;5.30;91.80;;;5.78;58.85;98420.16;4969320;28;114340;-74
2022/12/04 00:11:17;;;;;;;16.73;10.13;;;5.30;91.80;;;5.80;59.16;98415.22;4941837;28;114225;-73
2022/12/04 00:13:44;;;;;;;23.37;12.33;;;5.30;91.90;;;5.81;58.86;98416.88;4950226;28;123642;-74
2022/12/04 00:16:14;;;;;;;18.70;10.43;;;5.30;91.90;;;5.82;58.88;98407.53;4969547;28;123798;-74
2022/12/04 00:18:43;;;;;;;24.27;13.23;;;5.30;91.80;;;5.83;59.02;98409.16;4942914;28;115124;-74
2022/12/04 00:21:12;;;;;;;23.07;13.40;;;5.30;91.80;;;5.80;58.83;98421.50;4967463;28;115228;-74
2022/12/04 00:23:40;;;;;;;22.87;12.83;;;5.30;91.70;;;5.70;59.35;98405.19;4952435;28;122839;-74
2022/12/04 00:26:13;;;;;;;22.23;13.17;;;5.20;91.70;;;5.69;58.77;98395.31;4950099;28;125038;-74
2022/12/04 00:28:41;;;;;;;23.40;12.50;;;5.20;91.80;;;5.69;59.11;98392.56;4951324;28;114684;-74
2022/12/04 00:31:14;;;;;;;22.23;11.90;;;5.20;91.80;;;5.70;58.90;98400.53;4969430;28;113839;-74
2022/12/04 00:33:41;;;;;;;21.77;11.67;;;5.20;91.90;;;5.72;59.22;98381.88;4967773;28;123778;-74
2022/12/04 00:36:12;;;;;;;25.20;12.67;;;5.30;91.90;;;5.78;59.33;98384.53;4951000;28;123544;-74
2022/12/04 00:38:39;;;;;;;21.63;12.17;;;5.30;91.90;;;5.78;59.15;98395.50;4967856;28;114476;-75
2022/12/04 00:41:11;;;;;;;24.57;13.20;;;5.30;91.80;;;5.81;58.55;98394.94;4936629;28;113145;-74
2022/12/04 00:43:38;;;;;;;19.30;11.87;;;5.30;91.80;;;5.80;58.43;98399.56;4965139;28;124028;-74
2022/12/04 00:46:05;;;;;;;16.63;10.40;;;5.30;91.80;;;5.80;59.33;98399.56;4968349;28;123833;-75
2022/12/04 00:48:32;;;;;;;20.97;12.30;;;5.30;91.80;;;5.80;58.27;98394.09;4948069;28;113356;-74
2022/12/04 00:51:17;;;;;;;20.50;12.13;;;5.30;91.70;;;5.82;58.62;98404.78;4935449;28;113141;-74
2022/12/04 00:53:44;;;;;;;21.03;11.37;;;5.30;91.70;;;5.80;58.95;98387.81;4951461;28;124182;-74
2022/12/04 00:56:15;;;;;;;22.53;13.47;;;5.30;91.80;;;5.82;58.85;98391.06;4936894;28;123012;-74
2022/12/04 00:58:42;;;;;;;20.50;12.00;;;5.30;91.70;;;5.79;59.27;98394.41;4967344;28;114256;-74
2022/12/04 01:01:16;;;;;;;23.47;11.57;;;5.10;91.70;;;5.80;58.70;98390.53;4953827;28;113970;-74
2022/12/04 01:03:42;;;;;;;24.27;13.33;;;5.30;91.70;;;5.73;58.23;98383.50;4975061;28;123580;-77
2022/12/04 01:06:33;;;;;;;21.00;12.40;;;5.20;91.70;;;5.72;58.81;98397.47;4947679;28;123532;-74
2022/12/04 01:09:03;;;;;;;23.70;12.73;;;5.20;91.70;;;5.66;58.50;98402.19;4952366;28;115072;-74
2022/12/04 01:11:30;;;;;;;18.47;10.77;;;5.20;91.80;;;5.66;59.76;98391.22;4969629;28;115504;-74
2022/12/04 01:14:00;;;;;;;22.50;12.33;;;5.10;91.90;;;5.68;59.19;98385.47;4952229;28;124443;-75
2022/12/04 01:16:46;;;;;;;23.07;12.40;;;5.20;91.90;;;5.72;58.96;98384.59;4967990;28;123659;-75
2022/12/04 01:19:16;;;;;;;25.90;14.10;;;5.20;91.90;;;5.71;59.27;98374.75;4951708;28;114335;-75
2022/12/04 01:21:42;;;;;;;21.47;12.20;;;5.20;91.90;;;5.71;59.37;98384.88;4951435;28;113873;-75
2022/12/04 01:24:09;;;;;;;19.03;10.93;;;5.30;92.00;;;5.72;59.87;98375.53;4940657;28;123412;-75
2022/12/04 01:26:36;;;;;;;20.03;11.00;;;5.20;91.90;;;5.72;59.21;98376.38;4974813;28;122983;-75
2022/12/04 01:29:03;;;;;;;20.63;12.33;;;5.20;91.90;;;5.70;59.72;98388.75;4975571;28;114913;-75
2022/12/04 01:31:30;;;;;;;23.23;12.87;;;5.20;91.90;;;5.68;59.14;98380.81;4971920;28;114092;-75
2022/12/04 01:33:56;;;;;;;22.60;12.80;;;5.20;91.90;;;5.65;59.18;98380.56;4969292;28;124321;-75
2022/12/04 01:36:26;;;;;;;24.47;13.17;;;5.20;91.90;;;5.60;59.48;98383.38;4951399;28;123401;-74
2022/12/04 01:38:54;;;;;;;20.20;10.80;;;5.10;91.90;;;5.53;59.47;98381.81;4969324;28;114099;-74
2022/12/04 01:41:27;;;;;;;22.93;11.40;;;5.00;91.90;;;5.54;59.74;98379.88;4948100;28;113132;-74
2022/12/04 01:44:21;;;;;;;19.60;11.40;;;5.00;92.00;;;5.56;59.37;98382.31;4962423;28;124098;-74
2022/12/04 01:46:54;;;;;;;19.80;10.03;;;5.00;92.00;;;5.56;59.30;98371.34;4947807;28;123562;-74
2022/12/04 01:49:44;;;;;;;22.50;10.40;;;5.10;92.10;;;5.58;60.18;98374.63;4966750;28;112274;-74
2022/12/04 01:52:20;;;;;;;22.97;12.67;;;5.10;92.00;;;5.57;59.47;98376.53;4951436;28;113002;-74
2022/12/04 01:54:53;;;;;;;19.00;11.30;;;5.10;92.10;;;5.56;59.51;98377.63;4948348;28;123651;-74
2022/12/04 01:57:23;;;;;;;21.70;11.53;;;5.10;92.10;;;5.53;59.46;98379.06;4958741;28;123439;-74
2022/12/04 01:59:55;;;;;;;21.10;12.23;;;5.10;92.10;;;5.50;59.86;98385.09;4964682;28;115199;-75
2022/12/04 02:02:29;;;;;;;19.50;11.93;;;5.00;92.10;;;5.48;59.48;98386.47;4966369;28;114971;-74
2022/12/04 02:04:55;;;;;;;18.93;11.20;;;5.00;92.10;;;5.44;59.99;98386.25;4948270;28;123978;-73
2022/12/04 02:07:22;;;;;;;21.03;11.37;;;5.10;92.20;;;5.46;59.66;98391.47;4962002;28;123896;-74
2022/12/04 02:09:54;;;;;;;27.80;14.50;;;5.00;92.10;;;5.48;60.11;98391.97;4964712;28;114260;-74
2022/12/04 02:12:36;;;;;;;21.93;11.80;;;5.00;92.20;;;5.49;60.05;98380.72;4967057;28;115072;-74
2022/12/04 02:15:11;;;;;;;23.67;11.90;;;5.00;92.10;;;5.51;59.44;98385.94;4966439;28;123697;-75
2022/12/04 02:18:18;;;;;;;18.00;11.60;;;5.00;92.20;;;5.57;59.83;98376.53;4947861;28;123174;-74
2022/12/04 02:21:26;;;;;;;21.73;12.57;;;5.10;92.20;;;5.59;59.64;98371.59;4949883;28;114227;-74
2022/12/04 02:24:43;;;;;;;24.23;10.83;;;5.70;92.40;;;5.60;60.04;98364.19;4952660;28;113901;-74
2022/12/04 02:28:02;;;;;;;20.77;12.37;;;5.10;92.20;;;5.60;59.10;98359.53;4946961;28;123715;-74
2022/12/04 02:30:31;;;;;;;19.70;12.30;;;5.10;92.20;;;5.57;59.81;98362.84;4970076;28;123849;-74
2022/12/04 02:33:09;;;;;;;19.43;11.70;;;5.10;92.20;;;5.63;59.94;98356.19;4968456;28;114238;-74
2022/12/04 02:36:03;;;;;;;19.37;11.43;;;5.10;92.20;;;5.68;59.47;98353.41;4946902;28;114056;-74
2022/12/04 02:38:39;;;;;;;18.33;11.00;;;5.20;92.20;;;5.70;59.40;98364.88;4969489;28;123194;-74
2022/12/04 02:41:26;;;;;;;24.27;12.50;;;5.20;92.20;;;5.72;59.42;98359.94;4971655;28;123497;-75
2022/12/04 02:44:06;;;;;;;20.23;11.07;;;5.20;92.20;;;5.72;59.73;98365.44;4952407;28;113007;-74
2022/12/04 02:46:45;;;;;;;18.50;11.60;;;4.70;91.90;;;5.73;59.84;98358.81;4945514;28;114572;-74
2022/12/04 02:49:18;;;;;;;22.00;13.03;;;5.20;92.10;;;5.72;59.47;98359.94;4932690;28;123963;-73
2022/12/04 02:51:47;;;;;;;20.87;11.57;;;5.20;92.10;;;5.72;59.95;98357.19;4949330;28;123489;-73
2022/12/04 02:54:26;;;;;;;18.20;11.13;;;5.30;92.20;;;5.78;59.76;98346.16;4947794;28;114518;-73
2022/12/04 02:56:55;;;;;;;17.33;10.03;;;5.30;92.20;;;5.80;59.80;98360.38;4939873;28;115126;-73
2022/12/04 02:59:41;;;;;;;20.90;11.60;;;6.80;92.80;;;5.85;59.79;98338.41;4951305;28;123234;-72
2022/12/04 03:02:26;;;;;;;18.40;10.87;;;5.70;92.30;;;5.88;59.05;98346.84;4947028;28;123916;-73
2022/12/04 03:04:55;;;;;;;20.20;10.57;;;5.40;92.10;;;5.88;59.44;98351.53;4950946;28;115424;-73
2022/12/04 03:07:37;;;;;;;19.83;11.23;;;5.40;92.10;;;5.89;58.86;98342.22;4968554;28;114510;-72
2022/12/04 03:10:12;;;;;;;21.40;12.50;;;5.40;92.00;;;5.83;59.00;98338.72;4966725;28;124557;-72
2022/12/04 03:13:07;;;;;;;19.53;11.07;;;5.40;92.00;;;5.83;58.93;98340.63;4950442;28;123507;-73
2022/12/04 03:15:44;;;;;;;18.80;10.80;;;5.30;92.00;;;5.83;59.37;98332.38;4944807;28;114262;-73
2022/12/04 03:18:25;;;;;;;17.27;9.80;;;5.30;92.00;;;5.86;59.25;98342.78;4936470;28;114107;-75
2022/12/04 03:21:00;;;;;;;21.20;12.53;;;5.40;92.10;;;5.86;59.60;98340.06;4963997;28;123143;-73
2022/12/04 03:23:43;;;;;;;19.53;10.93;;;5.40;92.00;;;5.84;59.10;98326.63;4970631;28;123933;-73
2022/12/04 03:26:36;;;;;;;22.33;12.00;;;5.40;92.00;;;5.83;58.92;98335.13;4936528;28;113272;-73
2022/12/04 03:29:31;;;;;;;25.93;13.40;;;5.30;92.00;;;5.83;59.65;98335.97;4928039;28;114562;-73
2022/12/04 03:32:13;;;;;;;20.53;11.93;;;5.30;92.00;;;5.82;59.57;98322.53;4947072;28;123983;-73
2022/12/04 03:35:14;;;;;;;20.77;11.63;;;5.30;92.00;;;5.82;59.43;98319.81;4929986;28;124353;-73
2022/12/04 03:37:56;;;;;;;22.03;11.80;;;5.30;92.00;;;5.82;59.55;98317.88;4947712;28;114229;-73
2022/12/04 03:40:35;;;;;;;22.40;12.37;;;5.30;92.00;;;5.83;59.70;98321.41;4948212;28;113842;-73
2022/12/04 03:43:48;;;;;;;20.70;11.10;;;5.30;92.00;;;5.84;59.26;98323.88;4922980;28;123867;-73
2022/12/04 03:46:33;;;;;;;20.00;10.80;;;5.40;92.10;;;5.85;59.94;98319.22;4947478;28;124304;-72
2022/12/04 03:49:52;;;;;;;21.20;12.97;;;5.40;92.00;;;5.86;59.31;98309.91;4945985;28;115325;-73
2022/12/04 03:52:29;;;;;;;20.57;11.53;;;5.40;92.00;;;5.84;59.27;98323.06;4924159;28;114854;-73
2022/12/04 03:55:14;;;;;;;21.43;11.80;;;5.40;92.00;;;5.87;59.75;98327.97;4927918;28;124555;-73
2022/12/04 03:57:44;;;;;;;22.00;12.57;;;5.50;92.10;;;5.87;59.43;98317.00;4927869;28;123349;-73
2022/12/04 04:00:15;;;;;;;23.20;13.67;;;5.40;92.00;;;5.92;59.49;98325.16;4930796;28;114163;-72
2022/12/04 04:03:01;;;;;;;23.47;12.33;;;5.40;92.00;;;5.93;59.20;98311.19;4932819;28;113553;-73
2022/12/04 04:05:29;;;;;;;20.33;12.30;;;5.50;92.10;;;5.95;58.95;98319.13;4933025;28;124117;-73
2022/12/04 04:08:24;;;;;;;21.30;11.10;;;5.50;92.10;;;5.98;59.59;98318.53;4930562;28;122678;-73
2022/12/04 04:10:48;;;;;;;23.33;13.90;;;5.50;92.00;;;5.97;59.59;98327.88;4935280;28;114683;-73
2022/12/04 04:24:58;;;;;;;19.70;11.77;;;5.40;91.90;;;5.89;59.24;98353.16;4936332;28;114464;-73
2022/12/04 04:27:25;;;;;;;19.27;11.77;;;5.40;92.00;;;5.88;59.46;98352.31;4944094;28;124100;-74
2022/12/04 04:29:51;;;;;;;23.70;12.90;;;5.40;92.00;;;5.92;59.21;98352.56;4963826;28;123821;-73
2022/12/04 04:33:10;;;;;;;18.87;11.40;;;5.40;92.00;;;5.95;58.92;98360.25;4971733;28;113555;-73
2022/12/04 04:36:04;;;;;;;21.70;12.97;;;5.50;92.00;;;5.95;59.65;98354.75;4939111;28;113810;-73
2022/12/04 04:38:38;;;;;;;25.80;13.80;;;5.50;92.00;;;5.95;58.85;98352.03;4939010;28;123435;-73
2022/12/04 04:41:25;;;;;;;22.77;12.40;;;5.50;92.00;;;5.92;59.30;98341.63;4963171;28;123442;-73
2022/12/04 04:44:27;;;;;;;22.07;12.37;;;5.50;92.00;;;5.94;58.89;98344.91;4934617;28;115148;-73
2022/12/04 04:47:00;;;;;;;23.33;13.53;;;5.40;92.00;;;5.94;58.87;98345.72;4937365;28;115007;-73
2022/12/04 04:49:33;;;;;;;22.70;12.47;;;5.50;92.00;;;5.96;59.62;98350.91;4947536;28;123873;-73
2022/12/04 04:52:00;;;;;;;25.07;12.60;;;5.60;92.00;;;5.97;59.28;98344.31;4955317;28;124277;-73
2022/12/04 04:54:29;;;;;;;19.20;10.73;;;5.60;92.00;;;5.98;58.91;98345.94;4962524;28;114130;-74
2022/12/04 04:56:55;;;;;;;24.90;12.67;;;5.50;92.00;;;5.98;59.29;98343.22;4958479;28;114244;-73
2022/12/04 04:59:22;;;;;;;20.47;12.43;;;5.50;92.00;;;5.97;58.77;98347.06;4973360;28;124330;-73
2022/12/04 05:01:48;;;;;;;22.10;12.67;;;5.50;91.90;;;5.96;59.11;98349.00;4958712;28;125717;-73
2022/12/04 05:04:15;;;;;;;21.57;12.10;;;5.50;92.00;;;5.96;59.52;98357.22;4969681;28;114215;-73
2022/12/04 05:06:41;;;;;;;21.20;11.70;;;5.50;92.00;;;5.98;59.26;98356.91;4989521;28;114034;-73
2022/12/04 05:09:08;;;;;;;21.77;13.23;;;5.50;92.00;;;5.98;59.37;98356.91;4974669;28;124011;-72
2022/12/04 05:11:34;;;;;;;20.00;12.17;;;5.50;91.90;;;5.99;59.14;98353.06;4978641;28;123777;-73
2022/12/04 05:14:01;;;;;;;22.30;12.80;;;5.50;91.90;;;5.97;58.74;98349.81;4960891;28;114174;-73
2022/12/04 05:16:27;;;;;;;21.97;12.60;;;5.50;91.90;;;5.97;59.02;98356.09;4969787;28;113907;-74
2022/12/04 05:21:40;;;;;;;19.90;11.93;;;5.40;91.90;;;5.93;59.30;98354.19;4987135;28;124332;-74
2022/12/04 05:24:07;;;;;;;21.00;12.13;;;5.50;91.90;;;5.92;59.48;98353.38;4952893;28;114162;-74
2022/12/04 05:26:34;;;;;;;24.33;12.03;;;5.50;91.90;;;5.94;58.98;98358.63;4973938;28;114495;-74
2022/12/04 05:29:00;;;;;;;21.30;13.00;;;5.50;91.90;;;5.91;58.96;98346.28;4979674;28;123956;-74
2022/12/04 05:31:27;;;;;;;28.03;14.60;;;5.40;91.90;;;5.87;58.96;98350.72;4975192;28;123773;-74
2022/12/04 05:33:54;;;;;;;21.87;12.47;;;5.40;91.90;;;5.83;59.12;98335.97;4971181;28;114260;-73
2022/12/04 05:36:20;;;;;;;21.30;11.67;;;5.30;91.90;;;5.80;59.53;98338.47;4937934;28;114360;-74
2022/12/04 05:38:46;;;;;;;21.97;11.80;;;5.30;91.90;;;5.80;58.92;98343.94;4968771;28;124020;-73
2022/12/04 05:41:13;;;;;;;19.20;9.50;;;5.30;91.90;;;5.83;59.13;98343.34;4965657;28;124690;-73
2022/12/04 05:43:39;;;;;;;19.73;11.07;;;5.30;91.90;;;5.85;59.25;98349.38;4952302;28;113879;-73
2022/12/04 05:46:07;;;;;;;17.13;9.77;;;5.30;91.90;;;5.87;59.33;98338.94;4951168;28;113998;-74
2022/12/04 05:48:35;;;;;;;16.30;9.50;;;5.40;92.00;;;5.91;59.69;98342.69;4946594;28;124354;-74
2022/12/04 05:51:06;;;;;;;19.17;11.00;;;5.40;92.00;;;5.93;59.27;98343.22;4968072;28;124141;-73
2022/12/04 05:53:34;;;;;;;19.03;10.73;;;5.40;91.90;;;5.90;58.77;98343.81;4951320;28;114257;-74
2022/12/04 05:56:03;;;;;;;19.10;9.03;;;5.40;91.90;;;5.88;59.69;98340.56;4968544;28;113596;-73
2022/12/04 05:58:29;;;;;;;18.67;10.33;;;5.40;91.90;;;5.87;59.07;98334.25;4950543;28;124060;-74
2022/12/04 06:00:56;;;;;;;20.60;11.80;;;5.40;92.00;;;5.86;59.53;98342.78;4929251;28;122514;-74
2022/12/04 06:03:23;;;;;;;20.83;11.63;;;5.40;91.90;;;5.84;59.32;98340.34;4964647;28;115597;-74
2022/12/04 06:05:49;;;;;;;18.90;11.00;;;5.40;92.00;;;5.84;59.01;98350.50;4967873;28;114269;-73
2022/12/04 06:08:16;;;;;;;16.63;10.20;;;5.30;91.90;;;5.84;59.33;98347.75;4968076;28;123998;-73
2022/12/04 06:10:42;;;;;;;17.30;9.40;;;6.50;92.40;;;5.87;59.50;98358.94;4952603;28;123449;-74
2022/12/04 06:13:09;;;;;;;16.77;9.57;;;6.60;92.50;;;5.91;58.88;98346.28;4966479;28;114149;-74
2022/12/04 06:15:39;;;;;;;20.03;10.73;;;5.40;92.00;;;5.95;59.57;98355.56;4972187;28;114719;-74
2022/12/04 06:18:05;;;;;;;16.30;9.80;;;5.50;92.00;;;5.96;58.88;98346.25;4964047;28;123820;-73
2022/12/04 06:20:32;;;;;;;18.03;10.20;;;5.50;92.00;;;5.95;59.02;98350.09;4967183;28;123375;-74
2022/12/04 06:22:59;;;;;;;20.70;10.33;;;5.50;92.00;;;5.95;59.19;98343.78;4966354;28;115044;-73
2022/12/04 06:25:25;;;;;;;20.50;10.33;;;5.50;92.00;;;5.96;59.17;98345.41;4951594;28;114274;-73
2022/12/04 06:27:52;;;;;;;16.00;8.87;;;5.50;92.00;;;5.95;59.41;98341.06;4973609;28;123925;-74
2022/12/04 06:30:18;;;;;;;18.73;11.10;;;5.50;92.00;;;5.94;59.45;98333.94;4968014;28;123994;-73
2022/12/04 06:32:45;;;;;;;17.10;9.20;;;5.50;92.00;;;5.95;58.90;98335.56;4967607;28;114705;-72
2022/12/04 06:35:11;;;;;;;16.30;9.57;;;5.50;92.00;;;5.98;58.98;98340.47;4968889;28;113152;-73
2022/12/04 06:37:38;;;;;;;20.13;11.00;;;5.50;92.00;;;5.98;59.17;98332.22;4967781;28;124332;-73
2022/12/04 06:40:05;;;;;;;21.73;12.40;;;5.50;92.00;;;5.95;59.30;98335.56;4950868;28;123616;-73
2022/12/04 06:42:32;;;;;;;20.07;10.80;;;5.50;92.00;;;5.95;59.33;98341.06;4955929;28;112907;-73
2022/12/04 06:44:58;;;;;;;15.93;9.60;;;5.50;92.00;;;5.94;59.45;98339.44;4943311;28;113845;-73
2022/12/04 06:47:25;;;;;;;18.40;10.57;;;5.50;92.00;;;5.97;59.33;98344.31;4942113;28;123080;-73
2022/12/04 06:49:51;;;;;;;23.93;12.53;;;5.50;92.00;;;5.98;59.25;98340.47;4967820;28;124123;-73
2022/12/04 06:52:18;;;;;;;16.27;9.80;;;5.50;92.00;;;6.01;58.93;98344.53;4968456;28;114351;-73
2022/12/04 06:54:44;;;;;;;21.40;10.90;;;5.50;92.00;;;6.02;59.24;98355.22;4968309;28;114649;-73
2022/12/04 06:57:11;;;;;;;16.10;9.47;;;5.50;92.00;;;6.01;58.82;98345.34;4952593;28;124827;-73
2022/12/04 06:59:38;;;;;;;21.27;11.90;;;5.50;92.00;;;5.99;59.41;98342.09;4951626;28;123297;-73
2022/12/04 07:02:04;;;;;;;19.20;10.47;;;5.50;92.00;;;5.94;59.22;98340.25;4969543;28;114143;-73
2022/12/04 07:04:30;;;;;;;19.27;11.20;;;5.40;91.90;;;5.93;58.96;98351.47;4968085;28;114039;-73
2022/12/04 07:06:57;;;;;;;17.00;9.57;;;5.40;92.00;;;5.93;59.21;98344.06;4955600;28;124521;-73
2022/12/04 07:09:23;;;;;;;19.20;10.80;;;5.40;92.00;;;5.91;59.21;98354.50;4976271;28;123755;-73
2022/12/04 07:11:51;;;;;;;19.87;11.77;;;5.40;92.00;;;5.92;58.91;98352.56;4951677;28;115389;-73
2022/12/04 07:14:18;;;;;;;16.73;9.27;;;5.60;92.10;;;5.91;58.92;98356.41;4949828;28;114775;-73
2022/12/04 07:16:45;;;;;;;18.37;10.00;;;5.40;92.00;;;5.91;59.85;98348.19;4967620;28;123661;-73
2022/12/04 07:19:13;;;;;;;21.83;11.40;;;5.60;92.10;;;5.90;59.25;98352.06;4967624;28;123842;-73
2022/12/04 07:21:40;;;;;;;19.90;11.73;;;5.40;92.00;;;5.87;59.23;98349.91;4965711;28;114183;-73
2022/12/04 07:24:07;;;;;;;18.67;11.00;;;5.40;92.10;;;5.88;59.55;98348.78;4967665;28;114365;-73
2022/12/04 07:26:35;;;;;;;21.00;10.63;;;5.40;92.10;;;5.88;59.86;98349.59;4962003;28;123757;-73
2022/12/04 07:29:01;;;;;;;19.90;10.50;;;5.40;92.10;;;5.89;59.87;98342.22;4963395;28;124371;-73
2022/12/04 07:31:29;;;;;;;19.30;10.17;;;5.40;92.10;;;5.91;59.50;98343.53;4969114;28;114855;-73
2022/12/04 07:33:56;;;;;;;22.07;11.87;;;5.40;92.20;;;5.93;60.01;98348.72;4967540;28;113853;-73
2022/12/04 07:36:25;;;;;;;21.40;10.47;;;5.40;92.20;;;5.95;59.57;98341.88;4966850;28;123687;-74
2022/12/04 07:38:54;;;;;;;19.07;10.90;;;5.60;92.20;;;5.98;59.58;98345.94;4949446;28;123680;-73
2022/12/04 07:41:20;;;;;;;22.50;11.50;;;6.40;92.60;;;5.98;59.93;98343.22;4967939;28;113198;-73
2022/12/04 07:43:47;;;;;;;18.73;10.47;;;5.50;92.20;;;6.00;59.22;98353.91;4966964;28;114263;-73
2022/12/04 07:46:23;;;;;;;20.53;11.70;;;5.50;92.20;;;6.05;59.47;98351.91;4970035;28;126114;-73
2022/12/04 07:48:50;;;;;;;20.10;11.40;;;5.50;92.20;;;6.03;59.71;98348.63;4968260;28;123729;-72
2022/12/04 07:51:20;;;;;;;20.40;11.03;;;5.70;92.20;;;6.05;59.19;98349.16;4965768;28;114475;-73
2022/12/04 07:53:49;;;;;;;20.10;11.50;;;5.60;92.20;;;6.06;59.40;98345.28;4966042;28;114029;-73
2022/12/04 07:56:16;;;;;;;19.90;11.13;;;5.60;92.20;;;6.08;59.98;98354.06;4949364;28;124789;-73
2022/12/04 07:58:44;;;;;;;21.47;10.50;;;5.60;92.20;;;6.11;59.69;98358.13;4968737;28;123866;-73
2022/12/04 08:01:21;;;;;;;16.07;10.23;;;5.60;92.20;;;6.13;59.33;98359.47;4947219;28;115347;-72
2022/12/04 08:03:51;;;;;;;20.73;10.93;;;5.60;92.20;;;6.13;59.45;98358.66;4955549;28;114366;-72
2022/12/04 08:06:20;;;;;;;16.90;9.80;;;5.60;92.20;;;6.14;59.55;98363.84;4955493;28;123707;-73
2022/12/04 08:08:48;;;;;;;21.60;11.70;;;5.60;92.30;;;6.16;59.93;98358.06;4952635;28;124227;-73
2022/12/04 08:11:19;;;;;;;19.00;10.97;;;5.70;92.30;;;6.20;59.87;98359.09;4973498;28;114329;-73
2022/12/04 08:13:46;;;;;;;21.27;12.10;;;5.70;92.30;;;6.16;59.57;98358.88;4951536;28;114079;-74
2022/12/04 08:16:14;;;;;;;23.63;11.53;;;6.80;92.60;;;6.11;59.39;98353.47;4947152;28;124536;-73
2022/12/04 08:18:45;;;;;;;19.50;11.17;;;5.60;92.20;;;6.09;59.98;98347.44;4959086;28;123665;-74
2022/12/04 08:21:15;;;;;;;20.87;11.27;;;5.60;92.30;;;6.11;59.87;98352.66;4953451;28;113264;-74
2022/12/04 08:23:43;;;;;;;22.23;11.10;;;5.60;92.30;;;6.12;59.52;98352.34;4970406;28;113863;-74
2022/12/04 08:26:11;;;;;;;21.37;11.00;;;5.60;92.30;;;6.13;59.23;98355.91;4966901;28;123904;-75
2022/12/04 08:28:38;;;;;;;20.90;11.77;;;5.60;92.30;;;6.10;59.82;98354.56;4951918;28;122025;-74
2022/12/04 08:31:11;;;;;;;20.13;10.47;;;5.60;92.20;;;6.12;59.94;98357.81;4951637;28;113937;-74
2022/12/04 08:33:40;;;;;;;22.23;11.03;;;5.60;92.30;;;6.12;59.87;98362.50;4971703;28;113934;-75
2022/12/04 08:36:12;;;;;;;19.70;10.50;;;5.60;92.20;;;6.13;59.66;98370.44;4975204;28;123700;-77
2022/12/04 08:38:39;;;;;;;19.97;11.80;;;5.60;92.20;;;6.13;60.32;98362.22;4952939;28;123809;-74
2022/12/04 08:41:10;;;;;;;24.80;12.47;;;5.60;92.40;;;6.13;60.04;98366.88;4966212;28;114134;-74
2022/12/04 08:43:37;;;;;;;20.10;11.57;;;5.60;92.40;;;6.08;59.68;98376.00;4967767;28;115002;-74
2022/12/04 08:46:09;;;;;;;16.57;9.20;;;5.60;92.40;;;6.05;60.14;98384.00;4947790;28;124581;-74
2022/12/04 08:48:37;;;;;;;20.33;10.07;;;5.50;92.40;;;6.05;60.04;98375.78;4966837;28;123645;-75
2022/12/04 08:51:06;;;;;;;22.77;11.80;;;5.50;92.50;;;6.04;60.14;98374.13;4960472;28;115408;-75
2022/12/04 08:53:35;;;;;;;19.97;9.67;;;5.50;92.40;;;6.02;60.41;98373.59;4966146;28;114850;-74
2022/12/04 08:56:03;;;;;;;16.77;9.87;;;5.50;92.40;;;6.04;59.71;98383.16;4951862;28;124348;-75
2022/12/04 08:58:29;;;;;;;18.57;11.60;;;5.50;92.40;;;6.06;59.71;98394.66;4946408;28;123923;-74
2022/12/04 09:01:06;;;;;;;20.97;11.50;;;5.60;92.40;;;6.07;59.59;98390.81;4951886;28;113736;-75
2022/12/04 09:03:34;;;;;;;15.63;8.20;;;5.50;92.30;;;6.07;59.71;98392.72;4953459;28;113224;-74
2022/12/04 09:06:03;;;;;;;20.47;10.80;;;5.50;92.30;;;6.08;59.93;98389.69;4950605;28;124975;-75
2022/12/04 09:08:31;;;;;;;16.30;9.57;;;5.60;92.30;;;6.11;60.11;98394.59;4927857;28;121789;-75
2022/12/04 09:11:10;;;;;;;19.10;10.80;;;5.60;92.30;;;6.16;60.13;98390.97;4965990;28;114060;-74
2022/12/04 09:13:37;;;;;;;18.90;11.23;;;5.80;92.40;;;6.17;59.48;98404.38;4967139;28;113939;-74
2022/12/04 09:16:08;;;;;;;18.23;10.83;;;5.70;92.30;;;6.20;59.68;98401.06;4967999;28;123527;-74
2022/12/04 09:18:36;;;;;;;20.13;12.33;;;5.70;92.30;;;6.20;59.19;98400.25;4942803;28;122930;-74
2022/12/04 09:21:06;;;;;;;17.40;9.80;;;5.70;92.30;;;6.18;59.56;98397.00;4951214;28;114389;-74
2022/12/04 09:23:34;;;;;;;21.53;12.00;;;5.70;92.30;;;6.17;59.53;98392.59;4965756;28;114382;-74
2022/12/04 09:26:02;;;;;;;20.40;11.43;;;6.40;92.60;;;6.14;59.91;98388.53;4951812;28;123802;-75
2022/12/04 09:28:28;;;;;;;20.50;11.53;;;5.60;92.30;;;6.15;59.30;98389.34;4934137;28;123337;-75
2022/12/04 09:31:02;;;;;;;21.90;11.03;;;5.60;92.30;;;6.13;59.39;98386.09;4969105;28;114205;-75
2022/12/04 09:33:30;;;;;;;18.63;11.53;;;5.60;92.30;;;6.09;59.76;98374.88;4950947;28;114155;-75
2022/12/04 09:36:01;;;;;;;19.50;10.83;;;5.80;92.40;;;6.09;59.72;98368.56;4967964;28;123963;-75
2022/12/04 09:38:29;;;;;;;23.60;11.30;;;5.60;92.30;;;6.07;59.78;98360.66;4940855;28;123741;-74
2022/12/04 09:41:43;;;;;;;19.90;10.63;;;5.60;92.30;;;6.07;60.18;98360.66;4966312;28;115294;-74
2022/12/04 09:44:22;;;;;;;13.47;9.03;;;5.60;92.30;;;6.07;59.91;98354.31;4965004;28;114915;-73
2022/12/04 09:47:10;;;;;;;17.13;10.80;;;5.60;92.30;;;6.10;59.60;98346.34;4956217;28;124421;-74
2022/12/04 09:49:48;;;;;;;16.07;9.60;;;5.60;92.40;;;6.14;60.15;98338.34;4952866;28;123682;-74
2022/12/04 09:52:40;;;;;;;19.60;10.87;;;5.60;92.30;;;6.17;60.23;98330.31;4917776;28;97473;-74
2022/12/04 09:55:14;;;;;;;16.80;10.10;;;5.70;92.40;;;6.18;59.65;98329.22;4964872;28;113923;-74
2022/12/04 09:57:48;;;;;;;22.93;11.37;;;5.70;92.40;;;6.23;60.25;98322.84;4950433;28;123945;-73
2022/12/04 10:00:18;;;;;;;22.77;12.67;;;5.70;92.40;;;6.25;60.38;98314.34;4949675;28;123504;-75
2022/12/04 10:02:55;;;;;;;21.00;11.20;;;5.80;92.40;;;6.27;60.18;98312.13;4967311;28;115167;-74
2022/12/04 10:05:37;;;;;;;17.90;10.50;;;5.80;92.40;;;6.30;60.21;98303.28;4949930;28;113840;-74
2022/12/04 10:08:28;;;;;;;20.30;11.60;;;5.80;92.50;;;6.31;60.00;98302.97;4947063;28;123721;-74
2022/12/04 10:11:09;;;;;;;18.70;10.43;;;5.80;92.40;;;6.30;59.45;98297.78;4930932;28;125100;-75
2022/12/04 10:14:18;;;;;;;20.37;11.60;;;5.80;92.40;;;6.31;60.23;98297.47;4967913;28;114411;-75
2022/12/04 10:17:05;;;;;;;22.43;11.07;;;5.80;92.40;;;6.28;59.92;98294.53;4953882;28;114121;-75
2022/12/04 10:20:21;;;;;;;22.07;11.50;;;5.80;92.50;;;6.29;60.53;98299.72;4966440;28;124284;-74
2022/12/04 10:23:18;;;;;;;25.30;12.87;;;5.80;92.60;;;6.37;60.82;98298.25;4961296;28;123751;-74
2022/12/04 10:25:45;;;;;;;17.97;9.90;;;5.80;92.90;;;6.38;60.94;98294.38;4954151;28;114132;-74
2022/12/04 10:28:33;;;;;;;22.03;11.80;;;5.90;93.10;;;6.44;60.58;98297.88;4933588;28;114036;-73
2022/12/04 10:31:02;;;;;;;22.57;12.77;;;5.90;93.00;;;6.40;60.23;98287.50;4896922;28;123888;-73
2022/12/04 10:33:45;;;;;;;18.07;10.80;;;5.90;92.90;;;6.43;60.45;98285.28;4935320;28;123658;-74
2022/12/04 10:36:17;;;;;;;21.33;12.13;;;5.90;92.80;;;6.41;60.57;98294.59;4946122;28;115203;-75
2022/12/04 10:38:56;;;;;;;25.57;14.13;;;5.90;92.70;;;6.40;60.23;98303.16;4947597;28;114930;-74
2022/12/04 10:41:43;;;;;;;25.10;13.87;;;5.90;92.70;;;6.37;60.22;98303.75;4918524;28;124444;-74
2022/12/04 10:44:16;;;;;;;25.23;14.57;;;5.80;92.70;;;6.35;60.13;98308.69;4929867;28;123701;-75
2022/12/04 10:46:43;;;;;;;22.47;12.60;;;5.80;92.70;;;6.32;60.49;98320.28;4914523;28;112981;-74
2022/12/04 10:49:28;;;;;;;23.50;11.57;;;5.80;92.70;;;6.28;60.29;98324.69;4941353;28;114168;-74
2022/12/04 10:51:55;;;;;;;26.50;13.30;;;5.70;92.60;;;6.18;60.27;98322.94;4926637;28;124572;-74
2022/12/04 10:54:31;;;;;;;21.50;12.30;;;5.70;92.70;;;6.18;60.65;98317.47;4947800;28;123717;-75